Wolford, North Dakota
Current Conditions -  °F | °C
As of 5:55 AM on Wednesday 28 Jan 2015 (Local Time) from KRUG Reporting Station
Moderate Fog Moderate Fog  
Wind Chill: 21°   Ceiling: 100
Heat Index: 28°   Visibility: 0.25mi
Dew Point: 28°   Wind: 7mph
Humidity: 100%   Direction: 70°ENE
Pressure: 29.74"   Gusts: NA
Location:  48.5°N, 99.7°W
Report Text: KRUG 281155Z AUTO 07006KT 1/4SM FZFG OVC001 M02/M02 A2974 RMK AO2
Loading
Personal Weather Stations






























Interactive Weather Map New forecast layout! Learn more

10-Day Weather Forecast

Advertisements
Track Severe Weather on mobile